createdAt,value
2018-11-23T00:00:16.876Z,7.70
2018-11-23T00:02:46.522Z,6.97
2018-11-23T00:05:15.616Z,7.57
2018-11-23T00:07:44.441Z,6.67
2018-11-23T00:10:16.589Z,7.33
2018-11-23T00:12:45.362Z,6.83
2018-11-23T00:15:16.188Z,6.40
2018-11-23T00:17:44.688Z,6.50
2018-11-23T00:20:15.892Z,6.33
2018-11-23T00:22:44.712Z,6.10
2018-11-23T00:25:15.760Z,6.07
2018-11-23T00:27:44.321Z,6.13
2018-11-23T00:30:17.008Z,6.63
2018-11-23T00:32:45.808Z,5.80
2018-11-23T00:35:16.097Z,7.63
2018-11-23T00:37:45.108Z,6.20
2018-11-23T00:40:19.024Z,7.10
2018-11-23T00:42:47.684Z,6.97
2018-11-23T00:45:16.447Z,6.93
2018-11-23T00:47:45.732Z,5.53
2018-11-23T00:50:15.789Z,7.07
2018-11-23T00:52:45.008Z,5.70
2018-11-23T00:55:14.885Z,5.93
2018-11-23T00:57:43.508Z,6.67
2018-11-23T01:00:14.699Z,5.80
2018-11-23T01:02:43.604Z,6.67
2018-11-23T01:05:14.165Z,5.60
2018-11-23T01:07:43.264Z,6.47
2018-11-23T01:10:13.463Z,5.53
2018-11-23T01:12:42.692Z,5.87
2018-11-23T01:15:11.990Z,6.10
2018-11-23T01:17:40.494Z,5.87
2018-11-23T01:20:13.237Z,5.87
2018-11-23T01:22:42.334Z,5.93
2018-11-23T01:25:12.556Z,5.73
2018-11-23T01:27:42.170Z,5.33
2018-11-23T01:30:22.067Z,6.73
2018-11-23T01:32:50.572Z,6.37
2018-11-23T01:35:19.060Z,6.10
2018-11-23T01:37:47.552Z,5.87
2018-11-23T01:40:20.339Z,6.07
2018-11-23T01:42:49.328Z,6.53
2018-11-23T01:45:18.224Z,6.07
2018-11-23T01:47:46.706Z,6.00
2018-11-23T01:50:21.457Z,6.93
2018-11-23T01:52:50.828Z,6.57
2018-11-23T01:55:20.340Z,6.77
2018-11-23T01:57:49.000Z,6.37
2018-11-23T02:00:19.961Z,6.97
2018-11-23T02:02:49.264Z,5.77
2018-11-23T02:05:17.771Z,6.20
2018-11-23T02:07:46.257Z,5.43
2018-11-23T02:10:15.855Z,6.00
2018-11-23T02:12:44.380Z,6.13
2018-11-23T02:15:14.448Z,6.23
2018-11-23T02:17:42.944Z,5.03
2018-11-23T02:20:13.128Z,6.00
2018-11-23T02:22:41.816Z,6.40
2018-11-23T02:25:10.314Z,5.33
2018-11-23T02:27:38.793Z,6.30
2018-11-23T02:30:10.613Z,5.47
2018-11-23T02:32:39.132Z,6.13
2018-11-23T02:35:07.620Z,6.03
2018-11-23T02:37:36.108Z,5.73
2018-11-23T02:40:05.044Z,5.33
2018-11-23T02:42:33.520Z,6.17
2018-11-23T02:45:02.029Z,5.37
2018-11-23T02:47:30.515Z,5.20
2018-11-23T02:49:59.012Z,5.50
2018-11-23T02:52:27.498Z,5.43
2018-11-23T02:54:55.988Z,6.00
2018-11-23T02:57:25.040Z,6.47
2018-11-23T02:59:53.970Z,5.57
2018-11-23T03:02:22.448Z,4.93
2018-11-23T03:04:50.941Z,6.07
2018-11-23T03:07:19.420Z,4.40
2018-11-23T03:09:48.204Z,4.67
2018-11-23T03:12:16.681Z,5.73
2018-11-23T03:14:45.168Z,6.00
2018-11-23T03:17:13.889Z,5.57
2018-11-23T03:19:42.368Z,5.20
2018-11-23T03:22:11.129Z,5.70
2018-11-23T03:24:39.612Z,4.97
2018-11-23T03:27:08.090Z,5.37
2018-11-23T03:29:36.569Z,5.87
2018-11-23T03:32:05.289Z,6.50
2018-11-23T03:34:33.772Z,5.20
2018-11-23T03:37:02.254Z,5.23
2018-11-23T03:39:34.145Z,5.67
2018-11-23T03:41:59.336Z,5.77
2018-11-23T03:44:27.824Z,4.33
2018-11-23T03:46:56.308Z,5.03
2018-11-23T03:49:24.797Z,6.50
2018-11-23T03:51:53.272Z,5.47
2018-11-23T03:54:21.784Z,4.37
2018-11-23T03:56:50.627Z,5.57
2018-11-23T03:59:19.104Z,5.37
2018-11-23T04:01:47.619Z,4.93
2018-11-23T04:04:16.108Z,6.07
2018-11-23T04:06:44.772Z,5.43
2018-11-23T04:09:13.256Z,5.10
2018-11-23T04:11:41.752Z,6.23
2018-11-23T04:14:10.738Z,5.57
2018-11-23T04:16:39.221Z,6.30
2018-11-23T04:19:07.701Z,5.33
2018-11-23T04:21:36.187Z,5.70
2018-11-23T04:24:04.680Z,5.50
2018-11-23T04:26:33.164Z,5.03
2018-11-23T04:29:01.652Z,5.33
2018-11-23T04:31:30.137Z,5.50
2018-11-23T04:33:58.630Z,5.57
2018-11-23T04:36:27.109Z,6.10
2018-11-23T04:38:55.972Z,5.23
2018-11-23T04:41:24.459Z,4.20
2018-11-23T04:43:52.935Z,6.20
2018-11-23T04:46:21.412Z,5.20
2018-11-23T04:48:49.908Z,6.20
2018-11-23T04:51:18.388Z,5.63
2018-11-23T04:53:46.892Z,6.07
2018-11-23T04:56:15.381Z,5.57
2018-11-23T04:58:43.868Z,6.37
2018-11-23T05:01:12.359Z,5.73
2018-11-23T05:03:40.848Z,5.33
2018-11-23T05:06:09.320Z,6.43
2018-11-23T05:08:37.802Z,4.93
2018-11-23T05:11:06.280Z,5.40
2018-11-23T05:13:34.760Z,6.40
2018-11-23T05:16:03.261Z,5.47
2018-11-23T05:18:31.752Z,6.00
2018-11-23T05:21:00.418Z,5.17
2018-11-23T05:23:28.923Z,5.27
2018-11-23T05:25:57.401Z,7.63
2018-11-23T05:28:25.889Z,5.70
2018-11-23T05:30:54.536Z,5.07
2018-11-23T05:33:23.013Z,5.50
2018-11-23T05:35:51.491Z,5.83
2018-11-23T05:38:19.968Z,5.77
2018-11-23T05:40:48.453Z,6.13
2018-11-23T05:43:16.936Z,4.90
2018-11-23T05:45:45.409Z,4.90
2018-11-23T05:48:14.011Z,5.43
2018-11-23T05:50:42.500Z,5.00
2018-11-23T05:53:10.981Z,5.47
2018-11-23T05:55:39.461Z,5.20
2018-11-23T05:58:07.940Z,5.43
2018-11-23T06:00:36.484Z,4.93
2018-11-23T06:03:05.102Z,5.63
2018-11-23T06:05:33.597Z,4.50
2018-11-23T06:08:02.080Z,4.63
2018-11-23T06:10:30.565Z,5.13
2018-11-23T06:12:59.040Z,5.00
2018-11-23T06:15:27.527Z,4.73
2018-11-23T06:17:56.011Z,5.03
2018-11-23T06:20:26.607Z,5.23
2018-11-23T06:22:55.984Z,5.17
2018-11-23T06:25:29.865Z,4.40
2018-11-23T06:27:58.348Z,5.40
2018-11-23T06:30:26.853Z,4.90
2018-11-23T06:33:06.636Z,4.37
2018-11-23T06:35:35.125Z,4.67
2018-11-23T06:38:03.616Z,5.43
2018-11-23T06:40:32.100Z,4.87
2018-11-23T06:43:00.583Z,6.03
2018-11-23T06:45:29.875Z,4.43
2018-11-23T06:47:58.525Z,4.00
2018-11-23T06:50:27.028Z,4.73
2018-11-23T06:52:55.508Z,5.20
2018-11-23T06:55:24.303Z,5.00
2018-11-23T06:57:52.955Z,4.70
2018-11-23T07:00:21.444Z,4.90
2018-11-23T07:02:49.929Z,4.77
2018-11-23T07:05:18.425Z,3.93
2018-11-23T07:07:47.088Z,4.20
2018-11-23T07:10:15.566Z,4.70
2018-11-23T07:12:44.048Z,4.50
2018-11-23T07:15:13.124Z,5.17
2018-11-23T07:17:42.412Z,4.20
2018-11-23T07:20:13.088Z,4.70
2018-11-23T07:22:41.947Z,4.37
2018-11-23T07:25:12.176Z,3.87
2018-11-23T07:27:41.161Z,5.13
2018-11-23T07:30:17.212Z,4.37
2018-11-23T07:32:46.208Z,3.43
2018-11-23T07:35:15.545Z,4.17
2018-11-23T07:37:44.056Z,4.60
2018-11-23T07:40:32.988Z,3.23
2018-11-23T07:43:01.472Z,5.23
2018-11-23T07:45:30.249Z,4.20
2018-11-23T07:47:58.728Z,3.60
2018-11-23T07:50:27.220Z,4.70
2018-11-23T07:52:55.701Z,4.23
2018-11-23T07:55:24.496Z,4.60
2018-11-23T07:57:53.956Z,4.33
2018-11-23T08:00:23.664Z,3.40
2018-11-23T08:02:52.148Z,3.77
2018-11-23T08:05:21.036Z,3.83
2018-11-23T08:07:49.596Z,5.47
2018-11-23T08:10:17.261Z,3.80
2018-11-23T08:12:47.295Z,3.90
2018-11-23T08:15:19.027Z,3.90
2018-11-23T08:17:47.519Z,3.87
2018-11-23T08:20:17.664Z,4.00
2018-11-23T08:22:46.233Z,3.73
2018-11-23T08:25:16.126Z,3.30
2018-11-23T08:27:45.963Z,3.40
2018-11-23T08:30:17.096Z,3.70
2018-11-23T08:32:45.999Z,4.43
2018-11-23T08:35:14.676Z,3.87
2018-11-23T08:37:43.355Z,3.80
2018-11-23T08:40:17.665Z,3.43
2018-11-23T08:42:46.980Z,3.67
2018-11-23T08:45:18.401Z,3.50
2018-11-23T08:47:47.268Z,3.30
2018-11-23T08:50:18.458Z,3.17
2018-11-23T08:52:46.956Z,3.30
2018-11-23T08:55:16.454Z,4.30
2018-11-23T08:57:44.932Z,3.33
2018-11-23T09:00:18.124Z,3.80
2018-11-23T09:02:47.829Z,3.17
2018-11-23T09:05:17.025Z,3.37
2018-11-23T09:07:46.633Z,4.03
2018-11-23T09:10:17.104Z,3.23
2018-11-23T09:12:47.680Z,3.13
2018-11-23T09:15:17.549Z,3.20
2018-11-23T09:17:45.676Z,3.50
2018-11-23T09:20:14.981Z,3.33
2018-11-23T09:22:43.468Z,3.10
2018-11-23T09:25:26.524Z,3.50
2018-11-23T09:27:55.012Z,3.00
2018-11-23T09:30:25.683Z,3.27
2018-11-23T09:32:55.013Z,3.27
2018-11-23T09:35:23.977Z,3.93
2018-11-23T09:37:52.977Z,3.53
2018-11-23T09:40:22.730Z,3.40
2018-11-23T09:42:51.885Z,3.10
2018-11-23T09:45:23.977Z,3.83
2018-11-23T09:47:54.163Z,2.83
2018-11-23T09:50:23.768Z,2.83
2018-11-23T09:52:53.689Z,3.63
2018-11-23T09:55:24.004Z,3.70
2018-11-23T09:57:51.390Z,2.53
2018-11-23T10:00:22.505Z,3.73
2018-11-23T10:02:52.108Z,3.30
2018-11-23T10:05:21.217Z,2.90
2018-11-23T10:07:51.123Z,4.43
2018-11-23T10:10:20.633Z,2.80
2018-11-23T10:12:49.388Z,4.57
2018-11-23T10:15:18.893Z,3.43
2018-11-23T10:17:47.378Z,2.90
2018-11-23T10:20:17.769Z,3.47
2018-11-23T10:22:47.127Z,3.33
2018-11-23T10:25:17.345Z,3.27
2018-11-23T10:27:46.343Z,3.20
2018-11-23T10:30:18.135Z,3.27
2018-11-23T10:32:47.501Z,3.00
2018-11-23T10:35:16.029Z,2.43
2018-11-23T10:37:45.687Z,2.87
2018-11-23T10:40:16.479Z,3.10
2018-11-23T10:42:45.521Z,3.33
2018-11-23T10:45:16.805Z,3.30
2018-11-23T10:47:45.877Z,3.10
2018-11-23T10:50:18.572Z,3.00
2018-11-23T10:52:46.296Z,3.63
2018-11-23T10:55:17.181Z,3.27
2018-11-23T10:57:45.918Z,2.80
2018-11-23T11:02:23.544Z,3.47
2018-11-23T11:04:52.633Z,3.30
2018-11-23T11:07:21.123Z,3.73
2018-11-23T11:09:49.596Z,2.63
2018-11-23T11:12:18.372Z,2.60
2018-11-23T11:14:46.839Z,2.63
2018-11-23T11:17:15.331Z,3.60
2018-11-23T11:19:43.812Z,2.87
2018-11-23T11:22:12.300Z,3.23
2018-11-23T11:24:40.788Z,2.43
2018-11-23T11:27:09.272Z,3.73
2018-11-23T11:29:38.041Z,2.93
2018-11-23T11:32:06.520Z,2.80
2018-11-23T11:34:34.995Z,2.57
2018-11-23T11:37:03.472Z,3.17
2018-11-23T11:39:31.961Z,3.97
2018-11-23T11:42:00.447Z,3.00
2018-11-23T11:44:28.924Z,3.07
2018-11-23T11:46:57.418Z,3.00
2018-11-23T11:49:25.899Z,2.93
2018-11-23T11:51:54.384Z,2.97
2018-11-23T11:54:22.876Z,3.30
2018-11-23T11:56:51.364Z,3.10
2018-11-23T11:59:19.841Z,2.60
2018-11-23T12:01:48.744Z,3.33
2018-11-23T12:04:17.236Z,2.30
2018-11-23T12:06:45.735Z,3.03
2018-11-23T12:09:14.223Z,2.93
2018-11-23T12:11:42.708Z,3.03
2018-11-23T12:14:11.494Z,3.23
2018-11-23T12:16:40.007Z,2.43
2018-11-23T12:19:09.118Z,2.40
2018-11-23T12:21:37.602Z,2.97
2018-11-23T12:24:06.096Z,2.90
2018-11-23T12:26:34.572Z,2.70
2018-11-23T12:29:03.355Z,2.63
2018-11-23T12:31:31.840Z,3.77
2018-11-23T12:34:00.316Z,2.50
2018-11-23T12:36:28.804Z,3.10
2018-11-23T12:38:57.397Z,3.00
2018-11-23T12:41:25.878Z,2.93
2018-11-23T12:43:54.356Z,3.83
2018-11-23T12:46:22.869Z,3.20
2018-11-23T12:48:51.350Z,3.47
2018-11-23T12:51:19.836Z,3.10
2018-11-23T12:53:48.919Z,2.90
2018-11-23T12:56:17.669Z,2.43
2018-11-23T12:58:46.384Z,3.50
2018-11-23T13:01:14.872Z,3.10
2018-11-23T13:03:43.365Z,2.87
2018-11-23T13:06:11.837Z,4.07
2018-11-23T13:08:40.584Z,3.33
2018-11-23T13:11:09.076Z,2.73
2018-11-23T13:13:37.556Z,2.90
2018-11-23T13:16:06.033Z,3.87
2018-11-23T13:18:34.524Z,3.37
2018-11-23T13:21:03.304Z,3.50
2018-11-23T13:23:32.274Z,2.90
2018-11-23T13:26:00.754Z,3.27
2018-11-23T13:28:29.549Z,3.67
2018-11-23T13:30:58.024Z,3.13
2018-11-23T13:33:26.516Z,3.40
2018-11-23T13:35:55.012Z,3.40
2018-11-23T13:38:23.512Z,3.03
2018-11-23T13:40:52.008Z,2.90
2018-11-23T13:43:20.516Z,3.17
2018-11-23T13:45:49.116Z,3.50
2018-11-23T13:48:20.102Z,4.03
2018-11-23T13:50:46.139Z,3.67
2018-11-23T13:53:14.625Z,3.63
2018-11-23T13:55:43.104Z,3.07
2018-11-23T13:58:11.597Z,3.33
2018-11-23T14:00:40.081Z,3.07
2018-11-23T14:03:08.573Z,3.27
2018-11-23T14:05:37.073Z,3.20
2018-11-23T14:08:06.100Z,3.57
2018-11-23T14:10:34.573Z,3.50
2018-11-23T14:13:03.057Z,4.17
2018-11-23T14:15:31.967Z,2.93
2018-11-23T14:18:01.392Z,3.33
2018-11-23T14:20:30.128Z,3.83
2018-11-23T14:22:58.604Z,4.63
2018-11-23T14:25:28.753Z,3.67
2018-11-23T14:27:57.748Z,3.47
2018-11-23T14:30:27.569Z,3.67
2018-11-23T14:32:56.554Z,4.13
2018-11-23T14:35:26.601Z,3.30
2018-11-23T14:37:56.181Z,4.40
2018-11-23T14:40:24.859Z,4.90
2018-11-23T14:42:53.852Z,3.70
2018-11-23T14:45:25.580Z,3.27
2018-11-23T14:47:55.292Z,3.90
2018-11-23T14:50:25.275Z,4.73
2018-11-23T14:52:54.660Z,4.73
2018-11-23T14:55:24.074Z,4.17
2018-11-23T14:57:53.132Z,4.50
2018-11-23T15:00:25.709Z,5.13
2018-11-23T15:02:55.617Z,4.17
2018-11-23T15:05:24.106Z,3.93
2018-11-23T15:07:52.589Z,3.77
2018-11-23T15:10:23.521Z,3.80
2018-11-23T15:12:53.436Z,3.83
2018-11-23T15:15:23.659Z,4.47
2018-11-23T15:17:52.795Z,4.17
2018-11-23T15:20:26.590Z,3.43
2018-11-23T15:22:58.001Z,4.07
2018-11-23T15:25:26.488Z,3.63
2018-11-23T15:27:55.068Z,4.63
2018-11-23T15:30:25.287Z,3.80
2018-11-23T15:32:53.976Z,4.13
2018-11-23T15:35:22.688Z,3.97
2018-11-23T15:37:51.676Z,4.43
2018-11-23T15:40:23.830Z,4.13
2018-11-23T15:42:54.051Z,3.93
2018-11-23T15:45:24.172Z,4.60
2018-11-23T15:47:52.883Z,4.30
2018-11-23T15:50:23.484Z,3.73
2018-11-23T15:52:51.972Z,4.50
2018-11-23T15:55:23.029Z,4.70
2018-11-23T15:57:52.484Z,4.33
2018-11-23T16:00:26.093Z,4.00
2018-11-23T16:02:54.999Z,4.70
2018-11-23T16:05:23.808Z,4.70
2018-11-23T16:07:53.666Z,4.30
2018-11-23T16:10:25.477Z,4.97
2018-11-23T16:12:55.192Z,3.97
2018-11-23T16:15:24.260Z,4.17
2018-11-23T16:17:53.353Z,4.73
2018-11-23T16:20:24.329Z,5.30
2018-11-23T16:22:54.213Z,4.03
2018-11-23T16:25:23.437Z,5.03
2018-11-23T16:27:53.628Z,3.97
2018-11-23T16:30:53.398Z,4.33
2018-11-23T16:33:24.696Z,4.20
2018-11-23T16:35:52.456Z,4.47
2018-11-23T16:38:22.631Z,4.50
2018-11-23T16:40:53.300Z,5.83
2018-11-23T16:43:21.776Z,4.40
2018-11-23T16:45:50.289Z,4.40
2018-11-23T16:48:19.664Z,4.77
2018-11-23T16:50:48.359Z,3.97
2018-11-23T16:53:16.840Z,4.30
2018-11-23T16:55:45.343Z,4.73
2018-11-23T16:58:14.330Z,4.47
2018-11-23T17:00:45.236Z,4.13
2018-11-23T17:03:15.456Z,5.07
2018-11-23T17:05:46.025Z,4.70
2018-11-23T17:08:14.511Z,4.60
2018-11-23T17:10:43.000Z,4.13
2018-11-23T17:13:11.488Z,4.63
2018-11-23T17:15:39.984Z,4.53
2018-11-23T17:18:08.954Z,3.97
2018-11-23T17:20:38.441Z,5.17
2018-11-23T17:23:08.080Z,5.80
2018-11-23T17:25:36.564Z,4.43
2018-11-23T17:28:06.611Z,4.40
2018-11-23T17:30:35.913Z,5.80
2018-11-23T17:33:04.888Z,4.80
2018-11-23T17:35:33.389Z,4.63
2018-11-23T17:38:01.875Z,4.23
2018-11-23T17:40:33.396Z,4.87
2018-11-23T17:43:01.885Z,5.23
2018-11-23T17:45:31.952Z,5.03
2018-11-23T17:48:00.944Z,5.33
2018-11-23T17:50:31.536Z,4.30
2018-11-23T17:53:00.528Z,4.33
2018-11-23T17:55:29.828Z,4.90
2018-11-23T17:57:58.623Z,5.53
2018-11-23T18:00:28.468Z,5.47
2018-11-23T18:02:57.733Z,4.30
2018-11-23T18:05:27.037Z,5.70
2018-11-23T18:07:55.745Z,4.67
2018-11-23T18:10:25.638Z,5.43
2018-11-23T18:12:54.933Z,5.40
2018-11-23T18:15:26.097Z,5.23
2018-11-23T18:17:55.680Z,5.00
2018-11-23T18:20:25.181Z,4.60
2018-11-23T18:22:54.600Z,4.93
2018-11-23T18:25:25.453Z,4.53
2018-11-23T18:27:59.228Z,4.93
2018-11-23T18:30:28.284Z,5.87
2018-11-23T18:32:56.782Z,4.50
2018-11-23T18:35:25.276Z,5.30
2018-11-23T18:37:53.764Z,4.63
2018-11-23T18:40:22.760Z,5.70
2018-11-23T18:42:51.580Z,5.43
2018-11-23T18:45:20.382Z,4.80
2018-11-23T18:47:48.879Z,5.47
2018-11-23T18:50:18.080Z,4.83
2018-11-23T18:52:46.581Z,5.63
2018-11-23T18:55:18.341Z,5.50
2018-11-23T18:57:44.276Z,4.63
2018-11-23T19:00:14.900Z,5.27
2018-11-23T19:02:44.589Z,5.57
2018-11-23T19:05:17.405Z,4.63
2018-11-23T19:07:45.906Z,5.43
2018-11-23T19:10:14.797Z,5.50
2018-11-23T19:12:43.274Z,6.10
2018-11-23T19:15:12.937Z,6.63
2018-11-23T19:17:41.637Z,6.10
2018-11-23T19:20:16.248Z,5.57
2018-11-23T19:22:46.362Z,6.47
2018-11-23T19:25:14.879Z,5.60
2018-11-23T19:27:43.376Z,5.73
2018-11-23T19:30:16.976Z,6.07
2018-11-23T19:32:45.464Z,5.40
2018-11-23T19:35:14.122Z,6.70
2018-11-23T19:37:42.612Z,5.87
2018-11-23T19:40:12.384Z,6.07
2018-11-23T19:42:40.867Z,6.53
2018-11-23T19:45:11.599Z,6.73
2018-11-23T19:47:40.097Z,7.30
2018-11-23T19:50:14.687Z,5.93
2018-11-23T19:52:43.172Z,6.20
2018-11-23T19:55:12.738Z,6.00
2018-11-23T19:57:41.265Z,7.40
2018-11-23T20:00:25.828Z,5.80
2018-11-23T20:02:54.346Z,6.40
2018-11-23T20:05:23.328Z,6.13
2018-11-23T20:07:54.333Z,6.40
2018-11-23T20:10:23.611Z,6.93
2018-11-23T20:12:53.794Z,6.97
2018-11-23T20:15:22.278Z,5.80
2018-11-23T20:17:51.116Z,7.03
2018-11-23T20:20:19.604Z,5.10
2018-11-23T20:22:49.061Z,6.30
2018-11-23T20:25:19.783Z,5.73
2018-11-23T20:27:49.908Z,6.63
2018-11-23T20:30:19.282Z,6.33
2018-11-23T20:32:48.264Z,6.37
2018-11-23T20:35:17.911Z,6.80
2018-11-23T20:37:46.405Z,6.10
2018-11-23T20:40:22.013Z,6.67
2018-11-23T20:42:50.523Z,6.83
2018-11-23T20:45:19.409Z,6.33
2018-11-23T20:47:47.897Z,6.67
2018-11-23T20:50:17.432Z,7.10
2018-11-23T20:52:45.925Z,7.60
2018-11-23T20:55:18.715Z,6.57
2018-11-23T20:57:47.214Z,7.23
2018-11-23T21:00:17.613Z,5.63
2018-11-23T21:02:47.135Z,7.73
2018-11-23T21:05:17.739Z,6.30
2018-11-23T21:07:46.241Z,6.60
2018-11-23T21:10:21.012Z,6.20
2018-11-23T21:12:49.504Z,7.30
2018-11-23T21:15:25.401Z,6.10
2018-11-23T21:17:54.272Z,7.33
2018-11-23T21:20:22.781Z,8.43
2018-11-23T21:22:51.276Z,6.47
2018-11-23T21:25:19.768Z,6.53
2018-11-23T21:27:48.264Z,7.23
2018-11-23T21:30:21.413Z,7.30
2018-11-23T21:32:50.572Z,6.37
2018-11-23T21:35:19.539Z,7.20
2018-11-23T21:37:48.592Z,7.10
2018-11-23T21:40:17.495Z,7.50
2018-11-23T21:42:46.320Z,7.13
2018-11-23T21:45:16.276Z,7.27
2018-11-23T21:47:44.785Z,7.53
2018-11-23T21:50:25.439Z,7.50
2018-11-23T21:52:49.388Z,7.77
2018-11-23T21:55:20.964Z,7.57
2018-11-23T21:57:49.955Z,7.23
2018-11-23T22:00:18.460Z,7.50
2018-11-23T22:02:46.957Z,7.30
2018-11-23T22:05:15.444Z,7.00
2018-11-23T22:07:43.929Z,6.13
2018-11-23T22:10:17.375Z,6.73
2018-11-23T22:12:45.912Z,6.77
2018-11-23T22:15:18.411Z,6.77
2018-11-23T22:17:47.401Z,7.20
2018-11-23T22:20:18.250Z,7.10
2018-11-23T22:22:46.748Z,7.10
2018-11-23T22:25:16.536Z,7.10
2018-11-23T22:27:45.078Z,7.03
2018-11-23T22:30:19.886Z,7.47
2018-11-23T22:32:48.372Z,6.27
2018-11-23T22:35:17.357Z,6.73
2018-11-23T22:37:45.837Z,6.10
2018-11-23T22:40:15.394Z,7.10
2018-11-23T22:42:45.925Z,6.20
2018-11-23T22:45:15.436Z,8.50
2018-11-23T22:47:43.921Z,6.33
2018-11-23T22:50:16.607Z,6.40
2018-11-23T22:52:45.605Z,6.83
2018-11-23T22:55:15.078Z,6.47
2018-11-23T22:57:43.567Z,6.80
2018-11-23T23:00:23.727Z,8.00
2018-11-23T23:02:52.209Z,7.23
2018-11-23T23:05:21.905Z,6.67
2018-11-23T23:07:50.692Z,7.40
2018-11-23T23:10:19.181Z,6.70
2018-11-23T23:12:48.085Z,6.53
2018-11-23T23:15:16.972Z,7.57
2018-11-23T23:17:45.720Z,7.17
2018-11-23T23:20:16.917Z,6.20
2018-11-23T23:22:45.396Z,6.70
2018-11-23T23:25:14.524Z,6.63
2018-11-23T23:27:43.005Z,6.50
2018-11-23T23:30:14.501Z,8.60
2018-11-23T23:32:43.428Z,6.50
2018-11-23T23:35:13.046Z,6.10
2018-11-23T23:37:41.768Z,7.30
2018-11-23T23:40:12.425Z,6.17
2018-11-23T23:42:40.903Z,7.10
2018-11-23T23:45:14.402Z,9.50
2018-11-23T23:47:42.897Z,7.60
2018-11-23T23:50:16.722Z,6.70
2018-11-23T23:52:45.212Z,6.30
2018-11-23T23:55:13.716Z,8.40
2018-11-23T23:57:43.571Z,7.73
